createdAt,value
2023-04-18T00:00:00.666Z,2.78
2023-04-18T00:02:29.696Z,3.28
2023-04-18T00:04:58.073Z,2.35
2023-04-18T00:07:26.378Z,2.60
2023-04-18T00:09:54.498Z,2.90
2023-04-18T00:12:22.633Z,2.30
2023-04-18T00:14:52.232Z,2.60
2023-04-18T00:17:22.374Z,2.60
2023-04-18T00:19:51.909Z,2.90
2023-04-18T00:22:22.686Z,2.70
2023-04-18T00:24:51.157Z,2.97
2023-04-18T00:27:19.947Z,2.13
2023-04-18T00:29:48.755Z,2.53
2023-04-18T00:32:17.832Z,2.42
2023-04-18T00:34:47.538Z,2.65
2023-04-18T00:37:15.713Z,2.75
2023-04-18T00:39:43.835Z,2.72
2023-04-18T00:42:11.933Z,2.33
2023-04-18T00:44:40.054Z,2.70
2023-04-18T00:47:08.111Z,2.35
2023-04-18T00:49:36.370Z,2.60
2023-04-18T00:52:06.061Z,2.58
2023-04-18T00:54:34.137Z,3.10
2023-04-18T00:57:02.834Z,2.60
2023-04-18T00:59:31.238Z,2.72
2023-04-18T01:01:59.419Z,2.63
2023-04-18T01:04:27.717Z,2.65
2023-04-18T01:06:56.860Z,2.40
2023-04-18T01:09:26.834Z,2.83
2023-04-18T01:12:01.895Z,2.83
2023-04-18T01:14:30.055Z,2.83
2023-04-18T01:16:58.859Z,3.03
2023-04-18T01:19:26.965Z,2.88
2023-04-18T01:21:55.234Z,2.63
2023-04-18T01:24:26.851Z,2.90
2023-04-18T01:26:54.851Z,2.42
2023-04-18T01:29:23.053Z,2.33
2023-04-18T01:31:51.163Z,2.67
2023-04-18T01:34:19.414Z,2.85
2023-04-18T01:36:47.810Z,2.42
2023-04-18T01:39:16.044Z,3.05
2023-04-18T01:41:45.621Z,2.40
2023-04-18T01:44:13.957Z,2.42
2023-04-18T01:46:42.375Z,2.70
2023-04-18T01:49:10.687Z,3.03
2023-04-18T01:51:39.971Z,3.00
2023-04-18T01:54:08.115Z,3.00
2023-04-18T01:56:36.494Z,2.88
2023-04-18T01:59:05.976Z,2.85
2023-04-18T02:01:34.105Z,2.70
2023-04-18T02:04:02.285Z,3.15
2023-04-18T02:06:31.000Z,2.80
2023-04-18T02:09:01.096Z,3.10
2023-04-18T02:11:29.265Z,3.00
2023-04-18T02:13:57.674Z,3.00
2023-04-18T02:16:27.956Z,2.80
2023-04-18T02:18:56.612Z,3.10
2023-04-18T02:21:25.094Z,3.28
2023-04-18T02:23:53.621Z,3.00
2023-04-18T02:26:23.475Z,2.85
2023-04-18T02:28:51.684Z,3.30
2023-04-18T02:31:19.792Z,3.33
2023-04-18T02:33:49.396Z,3.20
2023-04-18T02:36:17.800Z,2.95
2023-04-18T02:38:46.207Z,3.67
2023-04-18T02:41:17.557Z,5.40
2023-04-18T02:43:45.654Z,3.70
2023-04-18T02:46:16.365Z,3.50
2023-04-18T02:48:47.581Z,4.25
2023-04-18T02:51:20.066Z,4.20
2023-04-18T02:53:48.664Z,4.05
2023-04-18T02:56:18.236Z,3.75
2023-04-18T02:59:11.193Z,4.05
2023-04-18T03:01:57.588Z,4.00
2023-04-18T03:04:31.951Z,4.07
2023-04-18T03:07:04.278Z,4.38
2023-04-18T03:09:36.591Z,4.35
2023-04-18T03:12:11.172Z,4.35
2023-04-18T03:14:40.273Z,4.35
2023-04-18T03:17:08.849Z,4.30
2023-04-18T03:19:41.393Z,4.10
2023-04-18T03:22:17.082Z,4.28
2023-04-18T03:25:00.242Z,3.90
2023-04-18T03:27:59.376Z,4.25
2023-04-18T03:30:29.553Z,4.80
2023-04-18T03:33:02.807Z,4.25
2023-04-18T03:35:31.503Z,4.72
2023-04-18T03:38:01.079Z,4.53
2023-04-18T03:40:34.725Z,5.30
2023-04-18T03:43:09.313Z,4.57
2023-04-18T03:45:37.863Z,4.78
2023-04-18T03:48:07.423Z,4.57
2023-04-18T03:50:41.485Z,4.60
2023-04-18T03:53:12.982Z,4.40
2023-04-18T03:55:41.333Z,4.55
2023-04-18T03:58:10.568Z,4.78
2023-04-18T04:00:42.434Z,4.95
2023-04-18T04:03:13.547Z,4.95
2023-04-18T04:05:41.990Z,4.72
2023-04-18T04:08:10.202Z,4.50
2023-04-18T04:10:39.828Z,4.47
2023-04-18T04:13:08.291Z,4.95
2023-04-18T04:15:40.122Z,4.82
2023-04-18T04:18:11.207Z,4.85
2023-04-18T04:20:43.227Z,5.00
2023-04-18T04:23:15.479Z,4.70
2023-04-18T04:25:48.259Z,4.60
2023-04-18T04:28:31.208Z,4.82
2023-04-18T04:31:06.940Z,4.68
2023-04-18T04:33:36.246Z,5.03
2023-04-18T04:36:10.167Z,5.07
2023-04-18T04:38:40.904Z,4.88
2023-04-18T04:41:11.988Z,4.75
2023-04-18T04:43:41.566Z,5.85
2023-04-18T04:46:13.789Z,7.90
2023-04-18T04:48:44.122Z,9.73
2023-04-18T04:51:12.470Z,8.00
2023-04-18T04:53:40.763Z,8.52
2023-04-18T04:56:11.306Z,7.82
2023-04-18T04:58:40.598Z,7.75
2023-04-18T05:01:19.971Z,6.22
2023-04-18T05:03:48.613Z,6.18
2023-04-18T05:06:20.665Z,6.75
2023-04-18T05:08:49.116Z,6.85
2023-04-18T05:11:19.278Z,6.30
2023-04-18T05:13:47.445Z,6.70
2023-04-18T05:16:15.654Z,6.88
2023-04-18T05:18:44.015Z,6.05
2023-04-18T05:21:12.116Z,6.32
2023-04-18T05:23:41.311Z,5.28
2023-04-18T05:26:09.677Z,5.40
2023-04-18T05:28:39.201Z,6.03
2023-04-18T05:31:07.604Z,5.80
2023-04-18T05:33:35.762Z,5.60
2023-04-18T05:36:04.233Z,6.45
2023-04-18T05:38:32.396Z,5.80
2023-04-18T05:41:00.591Z,6.00
2023-04-18T05:43:28.767Z,5.32
2023-04-18T05:45:58.401Z,4.93
2023-04-18T05:48:26.584Z,6.32
2023-04-18T05:50:54.706Z,5.72
2023-04-18T05:53:22.879Z,5.38
2023-04-18T05:55:51.442Z,7.05
2023-04-18T05:58:19.708Z,6.20
2023-04-18T06:00:48.411Z,6.97
2023-04-18T06:03:18.154Z,8.15
2023-04-18T06:05:46.554Z,12.98
2023-04-18T06:08:15.038Z,12.27
2023-04-18T06:10:43.182Z,8.90
2023-04-18T06:13:11.519Z,5.35
2023-04-18T06:15:39.728Z,5.30
2023-04-18T06:18:08.164Z,5.55
2023-04-18T06:20:37.926Z,5.13
2023-04-18T06:23:06.068Z,5.15
2023-04-18T06:25:34.334Z,4.75
2023-04-18T06:28:02.429Z,5.00
2023-04-18T06:30:31.534Z,6.13
2023-04-18T06:32:59.854Z,7.97
2023-04-18T06:35:28.176Z,7.80
2023-04-18T06:37:58.318Z,5.47
2023-04-18T06:40:26.502Z,5.97
2023-04-18T06:42:54.754Z,7.32
2023-04-18T06:45:22.984Z,5.88
2023-04-18T06:47:51.560Z,6.93
2023-04-18T06:50:20.208Z,6.55
2023-04-18T06:52:48.421Z,5.90
2023-04-18T06:55:17.980Z,6.25
2023-04-18T06:57:46.203Z,5.55
2023-04-18T07:00:15.423Z,4.78
2023-04-18T07:02:43.737Z,3.85
2023-04-18T07:05:12.132Z,3.88
2023-04-18T07:07:40.611Z,3.70
2023-04-18T07:10:11.504Z,3.80
2023-04-18T07:12:41.233Z,4.18
2023-04-18T07:15:13.000Z,4.00
2023-04-18T07:17:41.332Z,4.28
2023-04-18T07:20:12.969Z,5.20
2023-04-18T07:22:42.854Z,5.45
2023-04-18T07:25:11.406Z,4.70
2023-04-18T07:27:40.861Z,5.22
2023-04-18T07:30:10.215Z,6.13
2023-04-18T07:32:38.452Z,4.03
2023-04-18T07:35:07.902Z,3.30
2023-04-18T07:37:36.095Z,3.50
2023-04-18T07:40:07.617Z,4.15
2023-04-18T07:42:36.144Z,4.03
2023-04-18T07:45:06.784Z,4.00
2023-04-18T07:47:35.011Z,3.20
2023-04-18T07:50:04.350Z,3.47
2023-04-18T07:52:32.591Z,3.63
2023-04-18T07:55:01.154Z,3.45
2023-04-18T07:57:29.376Z,4.07
2023-04-18T07:59:57.636Z,3.53
2023-04-18T08:02:27.293Z,3.20
2023-04-18T08:04:56.294Z,3.20
2023-04-18T08:07:24.696Z,3.60
2023-04-18T08:09:55.069Z,3.28
2023-04-18T08:12:23.257Z,3.22
2023-04-18T08:14:51.496Z,3.22
2023-04-18T08:17:19.834Z,3.85
2023-04-18T08:19:49.469Z,3.50
2023-04-18T08:22:17.824Z,3.38
2023-04-18T08:24:57.468Z,4.90
2023-04-18T08:27:31.843Z,3.30
2023-04-18T08:30:00.716Z,2.83
2023-04-18T08:32:29.182Z,3.03
2023-04-18T08:34:58.749Z,2.97
2023-04-18T08:37:28.100Z,3.00
2023-04-18T08:39:56.365Z,2.50
2023-04-18T08:42:24.947Z,1.55
2023-04-18T08:44:56.159Z,1.85
2023-04-18T08:47:24.350Z,1.60
2023-04-18T08:49:53.682Z,1.50
2023-04-18T08:52:24.532Z,1.70
2023-04-18T08:54:52.809Z,1.63
2023-04-18T08:57:26.985Z,1.83
2023-04-18T08:59:55.733Z,2.13
2023-04-18T09:02:39.132Z,2.42
2023-04-18T09:05:13.286Z,2.42
2023-04-18T09:07:43.579Z,1.77
2023-04-18T09:10:12.768Z,1.50
2023-04-18T09:12:50.589Z,1.33
2023-04-18T09:15:22.644Z,1.35
2023-04-18T09:17:53.524Z,1.77
2023-04-18T09:20:35.804Z,1.52
2023-04-18T09:23:06.442Z,1.50
2023-04-18T09:25:36.079Z,1.60
2023-04-18T09:28:06.076Z,1.23
2023-04-18T09:30:38.118Z,1.50
2023-04-18T09:33:09.683Z,1.65
2023-04-18T09:35:38.545Z,1.60
2023-04-18T09:38:09.431Z,1.38
2023-04-18T09:40:37.838Z,1.52
2023-04-18T09:43:20.499Z,1.30
2023-04-18T09:45:49.766Z,1.40
2023-04-18T09:48:21.955Z,1.30
2023-04-18T09:50:51.079Z,1.20
2023-04-18T09:53:21.448Z,1.40
2023-04-18T09:55:52.209Z,1.35
2023-04-18T09:58:22.920Z,1.80
2023-04-18T10:00:52.568Z,1.70
2023-04-18T10:03:21.111Z,1.40
2023-04-18T10:05:50.356Z,1.35
2023-04-18T10:08:20.156Z,1.27
2023-04-18T10:10:48.331Z,1.60
2023-04-18T10:13:18.557Z,1.60
2023-04-18T10:15:47.365Z,1.85
2023-04-18T10:18:17.427Z,1.40
2023-04-18T10:20:48.512Z,1.60
2023-04-18T10:23:37.909Z,1.98
2023-04-18T10:26:07.072Z,1.20
2023-04-18T10:29:01.036Z,1.35
2023-04-18T10:31:30.391Z,1.50
2023-04-18T10:36:30.460Z,1.20
2023-04-18T10:39:04.364Z,1.50
2023-04-18T10:41:33.407Z,1.35
2023-04-18T10:44:31.741Z,1.20
2023-04-18T10:47:25.574Z,1.73
2023-04-18T10:50:01.605Z,1.50
2023-04-18T10:52:30.649Z,1.38
2023-04-18T10:55:29.981Z,1.50
2023-04-18T10:58:00.563Z,1.55
2023-04-18T11:00:30.204Z,1.35
2023-04-18T11:03:00.361Z,1.20
2023-04-18T11:05:30.247Z,1.83
2023-04-18T11:07:58.540Z,1.25
2023-04-18T11:10:29.572Z,1.65
2023-04-18T11:13:04.493Z,1.92
2023-04-18T11:15:32.890Z,1.67
2023-04-18T11:18:02.973Z,1.55
2023-04-18T11:20:38.544Z,1.40
2023-04-18T11:25:47.214Z,1.65
2023-04-18T11:28:20.919Z,1.80
2023-04-18T11:30:49.589Z,2.33
2023-04-18T11:33:18.047Z,2.10
2023-04-18T11:35:47.421Z,1.75
2023-04-18T11:38:17.148Z,1.58
2023-04-18T11:40:50.425Z,1.40
2023-04-18T11:43:22.665Z,1.58
2023-04-18T11:45:55.364Z,1.27
2023-04-18T11:48:23.792Z,1.30
2023-04-18T11:50:52.226Z,1.40
2023-04-18T11:53:33.779Z,1.35
2023-04-18T11:56:04.080Z,1.50
2023-04-18T11:58:33.195Z,1.77
2023-04-18T12:01:17.085Z,2.03
2023-04-18T12:03:45.837Z,2.17
2023-04-18T12:06:14.201Z,2.17
2023-04-18T12:08:44.516Z,1.88
2023-04-18T12:11:21.654Z,1.80
2023-04-18T12:13:50.198Z,1.30
2023-04-18T12:16:18.362Z,1.40
2023-04-18T12:18:47.382Z,1.80
2023-04-18T12:21:17.162Z,1.58
2023-04-18T12:23:45.998Z,1.55
2023-04-18T12:26:18.287Z,1.20
2023-04-18T12:28:48.205Z,1.50
2023-04-18T12:31:16.517Z,1.70
2023-04-18T12:33:44.740Z,1.40
2023-04-18T12:36:13.043Z,1.50
2023-04-18T12:38:43.242Z,1.30
2023-04-18T12:41:11.515Z,1.55
2023-04-18T12:43:41.031Z,1.40
2023-04-18T12:46:09.293Z,1.35
2023-04-18T12:48:37.646Z,1.52
2023-04-18T12:51:06.986Z,1.45
2023-04-18T12:53:35.178Z,1.63
2023-04-18T12:56:03.606Z,1.75
2023-04-18T12:58:31.767Z,1.55
2023-04-18T13:01:01.717Z,1.60
2023-04-18T13:03:30.253Z,1.40
2023-04-18T13:05:58.567Z,1.27
2023-04-18T13:08:26.726Z,1.30
2023-04-18T13:10:54.912Z,1.10
2023-04-18T13:13:23.170Z,1.40
2023-04-18T13:15:52.005Z,1.52
2023-04-18T13:18:21.804Z,1.10
2023-04-18T13:20:50.782Z,1.40
2023-04-18T13:23:19.042Z,1.30
2023-04-18T13:25:47.281Z,1.20
2023-04-18T13:28:15.437Z,1.50
2023-04-18T13:30:43.600Z,1.38
2023-04-18T13:33:11.794Z,1.17
2023-04-18T13:35:43.407Z,1.20
2023-04-18T13:38:12.166Z,1.55
2023-04-18T13:40:40.310Z,1.35
2023-04-18T13:43:10.057Z,1.13
2023-04-18T13:45:38.343Z,1.40
2023-04-18T13:48:06.980Z,1.55
2023-04-18T13:50:35.327Z,1.38
2023-04-18T13:53:05.035Z,1.23
2023-04-18T13:55:33.196Z,1.33
2023-04-18T13:58:01.471Z,1.20
2023-04-18T14:00:30.399Z,1.67
2023-04-18T14:02:58.638Z,1.35
2023-04-18T14:05:27.180Z,1.30
2023-04-18T14:08:01.974Z,1.55
2023-04-18T14:10:32.443Z,1.80
2023-04-18T14:13:00.734Z,1.77
2023-04-18T14:15:30.971Z,1.20
2023-04-18T14:17:59.453Z,1.40
2023-04-18T14:20:36.417Z,1.80
2023-04-18T14:23:04.783Z,2.05
2023-04-18T14:25:34.882Z,2.40
2023-04-18T14:28:09.943Z,2.80
2023-04-18T14:30:38.950Z,2.72
2023-04-18T14:33:11.378Z,2.30
2023-04-18T14:35:40.686Z,2.72
2023-04-18T14:38:09.195Z,2.72
2023-04-18T14:40:39.102Z,1.77
2023-04-18T14:43:07.381Z,2.60
2023-04-18T14:45:36.024Z,2.95
2023-04-18T14:48:04.344Z,3.38
2023-04-18T14:50:32.698Z,2.65
2023-04-18T14:53:01.228Z,2.80
2023-04-18T14:55:29.485Z,2.00
2023-04-18T14:57:59.368Z,2.03
2023-04-18T15:00:28.359Z,2.08
2023-04-18T15:02:56.795Z,1.92
2023-04-18T15:05:26.488Z,1.90
2023-04-18T15:07:56.222Z,2.05
2023-04-18T15:10:24.583Z,1.60
2023-04-18T15:12:52.802Z,1.80
2023-04-18T15:15:22.735Z,2.40
2023-04-18T15:17:51.306Z,1.88
2023-04-18T15:20:21.287Z,1.92
2023-04-18T15:22:51.020Z,1.83
2023-04-18T15:25:19.422Z,1.73
2023-04-18T15:27:47.825Z,2.35
2023-04-18T15:30:18.481Z,1.80
2023-04-18T15:32:48.818Z,2.80
2023-04-18T15:35:17.402Z,2.20
2023-04-18T15:37:45.846Z,1.90
2023-04-18T15:40:16.439Z,1.83
2023-04-18T15:42:44.925Z,2.00
2023-04-18T15:45:13.714Z,2.10
2023-04-18T15:47:42.715Z,2.05
2023-04-18T15:50:12.695Z,1.80
2023-04-18T15:52:41.915Z,2.13
2023-04-18T15:55:12.359Z,2.00
2023-04-18T15:57:41.888Z,2.10
2023-04-18T16:00:15.977Z,1.70
2023-04-18T16:02:44.919Z,1.88
2023-04-18T16:05:15.682Z,1.67
2023-04-18T16:07:44.639Z,4.00
2023-04-18T16:10:13.032Z,1.92
2023-04-18T16:12:41.912Z,2.70
2023-04-18T16:15:11.627Z,3.97
2023-04-18T16:17:40.563Z,5.40
2023-04-18T16:20:09.515Z,4.72
2023-04-18T16:22:39.256Z,4.80
2023-04-18T16:25:08.682Z,2.80
2023-04-18T16:27:37.062Z,2.55
2023-04-18T16:30:06.270Z,3.28
2023-04-18T16:32:35.767Z,2.78
2023-04-18T16:35:07.985Z,3.03
2023-04-18T16:37:36.333Z,2.80
2023-04-18T16:40:09.914Z,4.03
2023-04-18T16:42:38.440Z,4.70
2023-04-18T16:45:08.129Z,4.35
2023-04-18T16:47:37.120Z,4.15
2023-04-18T16:50:07.686Z,4.55
2023-04-18T16:52:38.339Z,4.45
2023-04-18T16:55:09.613Z,3.50
2023-04-18T16:57:39.668Z,4.93
2023-04-18T17:00:13.779Z,4.90
2023-04-18T17:02:45.672Z,5.18
2023-04-18T17:05:14.343Z,4.10
2023-04-18T17:07:42.929Z,3.47
2023-04-18T17:10:14.024Z,3.63
2023-04-18T17:12:44.071Z,4.03
2023-04-18T17:15:12.901Z,4.22
2023-04-18T17:17:43.406Z,3.83
2023-04-18T17:20:12.747Z,4.05
2023-04-18T17:22:43.312Z,4.55
2023-04-18T17:25:14.637Z,4.55
2023-04-18T17:27:43.120Z,4.45
2023-04-18T17:30:12.721Z,4.70
2023-04-18T17:32:46.300Z,2.63
2023-04-18T17:35:16.303Z,2.97
2023-04-18T17:37:45.369Z,3.40
2023-04-18T17:40:18.817Z,7.88
2023-04-18T17:42:47.957Z,7.43
2023-04-18T17:45:17.390Z,4.38
2023-04-18T17:47:46.527Z,5.68
2023-04-18T17:50:15.341Z,5.53
2023-04-18T17:52:45.310Z,4.30
2023-04-18T17:55:17.667Z,6.18
2023-04-18T17:57:48.738Z,7.38
2023-04-18T18:00:19.034Z,4.38
2023-04-18T18:02:48.602Z,4.10
2023-04-18T18:05:18.897Z,4.82
2023-04-18T18:07:50.951Z,4.47
2023-04-18T18:10:23.992Z,4.45
2023-04-18T18:12:53.940Z,4.82
2023-04-18T18:15:26.197Z,3.78
2023-04-18T18:17:55.862Z,4.00
2023-04-18T18:20:25.263Z,3.90
2023-04-18T18:22:54.999Z,3.83
2023-04-18T18:25:25.895Z,4.10
2023-04-18T18:27:59.280Z,4.13
2023-04-18T18:30:28.793Z,4.00
2023-04-18T18:33:02.628Z,4.18
2023-04-18T18:35:31.899Z,8.13
2023-04-18T18:38:01.208Z,9.77
2023-04-18T18:40:33.061Z,17.65
2023-04-18T18:43:02.802Z,11.48
2023-04-18T18:45:32.240Z,7.63
2023-04-18T18:48:01.012Z,4.30
2023-04-18T18:50:29.501Z,3.78
2023-04-18T18:52:58.938Z,3.10
2023-04-18T18:55:29.438Z,3.85
2023-04-18T18:58:01.178Z,3.47
2023-04-18T19:00:36.037Z,3.13
2023-04-18T19:03:05.638Z,2.95
2023-04-18T19:05:40.599Z,3.20
2023-04-18T19:08:11.037Z,2.25
2023-04-18T19:10:44.040Z,2.92
2023-04-18T19:13:15.771Z,3.20
2023-04-18T19:15:45.241Z,2.70
2023-04-18T19:18:15.832Z,3.30
2023-04-18T19:20:49.599Z,2.97
2023-04-18T19:23:19.494Z,3.67
2023-04-18T19:25:48.753Z,3.50
2023-04-18T19:28:21.096Z,4.55
2023-04-18T19:30:50.142Z,3.70
2023-04-18T19:33:20.547Z,4.25
2023-04-18T19:35:50.293Z,4.22
2023-04-18T19:38:19.168Z,4.07
2023-04-18T19:40:51.743Z,4.18
2023-04-18T19:43:26.470Z,4.03
2023-04-18T19:45:58.321Z,3.60
2023-04-18T19:48:32.048Z,3.60
2023-04-18T19:51:04.886Z,4.35
2023-04-18T19:53:35.023Z,4.65
2023-04-18T19:56:05.185Z,4.80
2023-04-18T19:58:40.924Z,5.15
2023-04-18T20:03:40.548Z,5.13
2023-04-18T20:06:10.148Z,4.65
2023-04-18T20:08:43.963Z,3.85
2023-04-18T20:11:15.427Z,3.47
2023-04-18T20:13:45.945Z,3.70
2023-04-18T20:16:17.529Z,4.07
2023-04-18T20:18:47.759Z,4.50
2023-04-18T20:21:17.447Z,4.03
2023-04-18T20:23:46.567Z,3.95
2023-04-18T20:26:16.032Z,3.80
2023-04-18T20:28:48.212Z,4.15
2023-04-18T20:31:20.129Z,4.20
2023-04-18T20:33:50.356Z,4.45
2023-04-18T20:36:19.390Z,3.67
2023-04-18T20:38:50.745Z,3.67
2023-04-18T20:41:20.908Z,3.50
2023-04-18T20:43:54.087Z,3.38
2023-04-18T20:46:22.461Z,3.40
2023-04-18T20:48:50.609Z,3.55
2023-04-18T20:51:18.903Z,2.75
2023-04-18T20:53:47.582Z,3.08
2023-04-18T20:56:15.968Z,3.45
2023-04-18T20:58:45.256Z,3.15
2023-04-18T21:01:15.191Z,3.05
2023-04-18T21:03:44.395Z,3.03
2023-04-18T21:06:12.864Z,3.13
2023-04-18T21:08:41.151Z,3.22
2023-04-18T21:11:09.730Z,3.10
2023-04-18T21:13:39.125Z,3.78
2023-04-18T21:16:10.306Z,3.13
2023-04-18T21:18:40.062Z,3.65
2023-04-18T21:21:09.030Z,3.40
2023-04-18T21:23:43.281Z,3.63
2023-04-18T21:26:13.642Z,3.60
2023-04-18T21:28:58.636Z,3.08
2023-04-18T21:31:28.009Z,3.53
2023-04-18T21:33:59.116Z,3.08
2023-04-18T21:36:28.956Z,3.10
2023-04-18T21:38:58.556Z,3.10
2023-04-18T21:41:27.215Z,3.28
2023-04-18T21:43:57.647Z,3.28
2023-04-18T21:46:26.572Z,3.70
2023-04-18T21:48:55.018Z,2.97
2023-04-18T21:51:24.642Z,3.10
2023-04-18T21:53:53.838Z,3.30
2023-04-18T21:56:22.143Z,3.70
2023-04-18T21:58:50.737Z,4.18
2023-04-18T22:01:18.905Z,4.35
2023-04-18T22:03:47.300Z,4.03
2023-04-18T22:06:15.575Z,4.13
2023-04-18T22:08:45.125Z,4.03
2023-04-18T22:11:13.780Z,3.72
2023-04-18T22:13:45.058Z,3.30
2023-04-18T22:16:13.727Z,3.28
2023-04-18T22:18:41.988Z,3.50
2023-04-18T22:21:10.677Z,3.67
2023-04-18T22:23:58.937Z,2.75
2023-04-18T22:26:33.104Z,3.40
2023-04-18T22:29:01.335Z,3.90
2023-04-18T22:31:29.764Z,3.72
2023-04-18T22:33:57.940Z,3.28
2023-04-18T22:36:27.725Z,3.45
2023-04-18T22:38:55.944Z,3.30
2023-04-18T22:41:25.971Z,2.58
2023-04-18T22:43:54.209Z,3.03
2023-04-18T22:46:22.886Z,4.10
2023-04-18T22:48:51.135Z,3.92
2023-04-18T22:51:20.385Z,3.60
2023-04-18T22:53:48.513Z,3.35
2023-04-18T22:56:17.559Z,3.80
2023-04-18T22:58:47.172Z,3.40
2023-04-18T23:01:15.494Z,4.05
2023-04-18T23:03:44.028Z,3.40
2023-04-18T23:06:12.865Z,3.22
2023-04-18T23:08:41.126Z,2.60
2023-04-18T23:11:10.824Z,3.20
2023-04-18T23:13:39.053Z,3.25
2023-04-18T23:16:09.653Z,3.47
2023-04-18T23:18:37.942Z,3.05
2023-04-18T23:21:06.090Z,3.25
2023-04-18T23:23:34.497Z,3.40
2023-04-18T23:26:03.015Z,3.00
2023-04-18T23:28:31.266Z,2.90
2023-04-18T23:30:59.417Z,3.10
2023-04-18T23:33:29.174Z,2.75
2023-04-18T23:35:57.382Z,2.58
2023-04-18T23:38:25.657Z,2.80
2023-04-18T23:40:54.079Z,2.72
2023-04-18T23:43:22.303Z,2.92
2023-04-18T23:45:52.536Z,3.40
2023-04-18T23:48:20.794Z,3.25
2023-04-18T23:50:52.546Z,3.17
2023-04-18T23:53:21.180Z,3.33
2023-04-18T23:55:51.076Z,3.53
2023-04-18T23:58:19.460Z,3.10
